Time;durP1;ratioP1;P1;durP2;ratioP2;P2;SDS_P1;SDS_P2;PMS_P1;PMS_P2;Temp;Humidity;BMP_temperature;BMP_pressure;BME280_temperature;BME280_humidity;BME280_pressure;Samples;Min_cycle;Max_cycle;Signal;HPM_P1;HPM_P2
2022/08/01 00:01:44;;;;;;;2.67;2.40;;;;;;;;;;5053394;28;20186;-76
2022/08/01 00:04:10;;;;;;;3.20;2.10;;;;;;;;;;5054885;28;20200;-76
2022/08/01 00:06:36;;;;;;;2.90;2.33;;;;;;;;;;5060372;28;20176;-75
2022/08/01 00:09:02;;;;;;;3.77;2.50;;;;;;;;;;5069988;28;20185;-75
2022/08/01 00:11:28;;;;;;;2.70;2.50;;;;;;;;;;5061249;28;20267;-75
2022/08/01 00:13:55;;;;;;;6.77;2.50;;;;;;;;;;5058203;28;20204;-75
2022/08/01 00:16:22;;;;;;;4.33;2.30;;;;;;;;;;5064644;28;20238;-76
2022/08/01 00:18:49;;;;;;;2.50;2.30;;;;;;;;;;5051019;28;20194;-75
2022/08/01 00:21:16;;;;;;;2.70;2.50;;;;;;;;;;5053537;28;20186;-75
2022/08/01 00:23:42;;;;;;;2.40;2.20;;;;;;;;;;5063121;28;20255;-75
2022/08/01 00:26:08;;;;;;;2.40;2.20;;;;;;;;;;5057255;28;20177;-75
2022/08/01 00:28:34;;;;;;;2.83;2.30;;;;;;;;;;5073715;28;20280;-75
2022/08/01 00:31:00;;;;;;;2.67;2.20;;;;;;;;;;5054426;28;20626;-75
2022/08/01 00:33:26;;;;;;;2.23;2.07;;;;;;;;;;5065248;28;20177;-75
2022/08/01 00:35:53;;;;;;;3.40;2.40;;;;;;;;;;5062811;28;20182;-75
2022/08/01 00:38:19;;;;;;;2.60;2.40;;;;;;;;;;5063211;28;20196;-75
2022/08/01 00:40:45;;;;;;;2.80;2.27;;;;;;;;;;5068532;28;20188;-74
2022/08/01 00:43:11;;;;;;;3.53;2.30;;;;;;;;;;5067451;28;20267;-76
2022/08/01 00:45:37;;;;;;;4.90;2.20;;;;;;;;;;5075119;28;20180;-76
2022/08/01 00:48:04;;;;;;;3.00;2.30;;;;;;;;;;5065160;28;20192;-75
2022/08/01 00:50:30;;;;;;;3.67;2.40;;;;;;;;;;5060661;28;20700;-75
2022/08/01 00:52:58;;;;;;;3.03;2.20;;;;;;;;;;5055060;28;20181;-75
2022/08/01 00:55:24;;;;;;;2.13;1.90;;;;;;;;;;5052925;28;20208;-74
2022/08/01 00:57:51;;;;;;;3.77;2.40;;;;;;;;;;5054697;28;20192;-75
2022/08/01 01:00:17;;;;;;;2.57;2.37;;;;;;;;;;5055966;28;20177;-75
2022/08/01 01:02:44;;;;;;;2.53;2.33;;;;;;;;;;5066642;28;20214;-75
2022/08/01 01:05:10;;;;;;;2.50;2.30;;;;;;;;;;5079723;28;20722;-76
2022/08/01 01:07:39;;;;;;;2.20;2.00;;;;;;;;;;5063872;28;20651;-75
2022/08/01 01:10:09;;;;;;;2.33;2.13;;;;;;;;;;5066867;28;20304;-74
2022/08/01 01:12:45;;;;;;;2.97;2.10;;;;;;;;;;5068200;28;20173;-75
2022/08/01 01:15:16;;;;;;;2.60;2.07;;;;;;;;;;5065463;28;20206;-75
2022/08/01 01:18:01;;;;;;;2.87;2.40;;;;;;;;;;5059747;28;20181;-75
2022/08/01 01:20:36;;;;;;;2.63;2.43;;;;;;;;;;5062767;28;20212;-76
2022/08/01 01:23:10;;;;;;;2.83;2.50;;;;;;;;;;5067316;28;20189;-75
2022/08/01 01:26:02;;;;;;;2.50;2.30;;;;;;;;;;5066232;28;20172;-75
2022/08/01 01:28:47;;;;;;;2.60;2.40;;;;;;;;;;5067562;28;20212;-75
2022/08/01 01:31:14;;;;;;;2.60;2.40;;;;;;;;;;5069566;28;20630;-75
2022/08/01 01:33:41;;;;;;;3.40;2.30;;;;;;;;;;5062080;28;20259;-75
2022/08/01 01:36:09;;;;;;;2.80;2.40;;;;;;;;;;5073801;28;20182;-75
2022/08/01 01:38:44;;;;;;;4.03;2.40;;;;;;;;;;5066409;28;20272;-75
2022/08/01 01:41:14;;;;;;;3.23;2.50;;;;;;;;;;5066446;28;20289;-75
2022/08/01 01:43:41;;;;;;;4.97;2.37;;;;;;;;;;5065092;28;20213;-75
2022/08/01 01:46:08;;;;;;;2.33;2.17;;;;;;;;;;5062039;28;20194;-75
2022/08/01 01:48:35;;;;;;;3.20;2.43;;;;;;;;;;5067172;28;20255;-75
2022/08/01 01:51:01;;;;;;;2.20;2.00;;;;;;;;;;5064903;28;20216;-75
2022/08/01 01:53:29;;;;;;;2.50;2.30;;;;;;;;;;5073545;28;20173;-75
2022/08/01 01:55:57;;;;;;;3.77;2.00;;;;;;;;;;5061233;28;20181;-75
2022/08/01 01:58:24;;;;;;;3.07;2.70;;;;;;;;;;5068927;28;20193;-77
2022/08/01 02:00:52;;;;;;;2.47;2.20;;;;;;;;;;5067510;28;20185;-74
2022/08/01 02:03:19;;;;;;;2.83;2.17;;;;;;;;;;5072248;28;20646;-76
2022/08/01 02:05:45;;;;;;;3.03;2.30;;;;;;;;;;5073628;28;20181;-75
2022/08/01 02:08:12;;;;;;;2.30;2.10;;;;;;;;;;5069761;28;20189;-75
2022/08/01 02:10:39;;;;;;;2.60;2.40;;;;;;;;;;5062003;28;20626;-75
2022/08/01 02:13:06;;;;;;;4.27;2.40;;;;;;;;;;5065753;28;20174;-75
2022/08/01 02:15:33;;;;;;;2.17;1.97;;;;;;;;;;5064985;28;20250;-75
2022/08/01 02:18:00;;;;;;;3.10;2.30;;;;;;;;;;5065818;28;20194;-75
2022/08/01 02:20:27;;;;;;;2.83;2.13;;;;;;;;;;5073890;28;20276;-75
2022/08/01 02:22:56;;;;;;;2.03;1.83;;;;;;;;;;5079537;28;20189;-75
2022/08/01 02:25:36;;;;;;;2.40;2.20;;;;;;;;;;5093346;28;20687;-75
2022/08/01 02:28:25;;;;;;;2.47;2.20;;;;;;;;;;5088472;28;20285;-76
2022/08/01 02:30:51;;;;;;;4.33;2.20;;;;;;;;;;5056787;28;20698;-76
2022/08/01 02:33:19;;;;;;;3.67;2.10;;;;;;;;;;5070264;28;20264;-76
2022/08/01 02:35:47;;;;;;;2.20;2.00;;;;;;;;;;5066563;28;20705;-76
2022/08/01 02:38:15;;;;;;;2.07;1.87;;;;;;;;;;5072862;28;20669;-74
2022/08/01 02:40:43;;;;;;;3.33;2.10;;;;;;;;;;5067689;28;20268;-75
2022/08/01 02:43:10;;;;;;;2.40;2.00;;;;;;;;;;5070846;28;20670;-75
2022/08/01 02:45:39;;;;;;;2.00;1.90;;;;;;;;;;5066121;28;20251;-75
2022/08/01 02:48:10;;;;;;;2.70;2.27;;;;;;;;;;5053532;28;20184;-76
2022/08/01 02:50:37;;;;;;;2.50;2.30;;;;;;;;;;5055743;28;20585;-75
2022/08/01 02:53:04;;;;;;;2.67;2.47;;;;;;;;;;5060024;28;20177;-75
2022/08/01 02:55:31;;;;;;;2.30;2.10;;;;;;;;;;5090613;28;20219;-75
2022/08/01 02:57:57;;;;;;;2.57;2.10;;;;;;;;;;5093253;28;20183;-75
2022/08/01 03:00:24;;;;;;;2.93;1.80;;;;;;;;;;5072120;28;20181;-76
2022/08/01 03:02:53;;;;;;;2.40;2.20;;;;;;;;;;5051039;28;20189;-75
2022/08/01 03:05:20;;;;;;;1.93;1.80;;;;;;;;;;5079744;28;20209;-75
2022/08/01 03:07:46;;;;;;;2.10;1.90;;;;;;;;;;5080622;28;20188;-75
2022/08/01 03:10:13;;;;;;;2.23;1.90;;;;;;;;;;5087553;28;20359;-76
2022/08/01 03:12:40;;;;;;;2.50;2.27;;;;;;;;;;5072715;28;20185;-75
2022/08/01 03:15:07;;;;;;;3.10;2.20;;;;;;;;;;5068810;28;20242;-75
2022/08/01 03:17:34;;;;;;;4.23;2.30;;;;;;;;;;5078086;28;20654;-75
2022/08/01 03:20:02;;;;;;;2.10;1.90;;;;;;;;;;5085537;28;20174;-75
2022/08/01 03:22:29;;;;;;;2.20;2.00;;;;;;;;;;5067905;28;20238;-75
2022/08/01 03:24:56;;;;;;;3.60;2.23;;;;;;;;;;5067849;28;20288;-75
2022/08/01 03:27:24;;;;;;;2.13;1.97;;;;;;;;;;5061494;28;20182;-76
2022/08/01 03:29:51;;;;;;;2.37;2.10;;;;;;;;;;5070712;28;20221;-75
2022/08/01 03:32:18;;;;;;;2.20;2.00;;;;;;;;;;5081820;28;20185;-76
2022/08/01 03:34:44;;;;;;;2.10;1.90;;;;;;;;;;5064514;28;20236;-75
2022/08/01 03:37:30;;;;;;;2.33;1.97;;;;;;;;;;5058925;28;20185;-75
2022/08/01 03:40:05;;;;;;;2.20;2.00;;;;;;;;;;5071868;28;20192;-75
2022/08/01 03:42:33;;;;;;;2.10;1.90;;;;;;;;;;5068760;28;20599;-75
2022/08/01 03:45:02;;;;;;;2.80;1.80;;;;;;;;;;5075792;28;20209;-76
2022/08/01 03:47:33;;;;;;;1.90;1.70;;;;;;;;;;5080392;28;20612;-75
2022/08/01 03:50:00;;;;;;;3.80;2.00;;;;;;;;;;5089651;28;20235;-74
2022/08/01 03:52:28;;;;;;;2.90;1.70;;;;;;;;;;5072642;28;20183;-74
2022/08/01 03:54:55;;;;;;;3.27;1.80;;;;;;;;;;5070046;28;20198;-75
2022/08/01 03:57:22;;;;;;;2.77;1.90;;;;;;;;;;5066675;28;20657;-75
2022/08/01 03:59:49;;;;;;;1.70;1.60;;;;;;;;;;5065173;28;20177;-75
2022/08/01 04:02:16;;;;;;;2.17;1.60;;;;;;;;;;5070692;28;20185;-74
2022/08/01 04:04:42;;;;;;;2.20;1.80;;;;;;;;;;5075342;28;20212;-75
2022/08/01 04:07:25;;;;;;;3.63;1.70;;;;;;;;;;5070814;28;20651;-75
2022/08/01 04:09:51;;;;;;;2.93;2.10;;;;;;;;;;5067188;28;20263;-76
2022/08/01 04:12:18;;;;;;;1.80;1.70;;;;;;;;;;5067862;28;20280;-75
2022/08/01 04:14:44;;;;;;;2.10;1.67;;;;;;;;;;5084789;28;20215;-76
2022/08/01 04:17:11;;;;;;;1.70;1.60;;;;;;;;;;5088636;28;20177;-75
2022/08/01 04:19:37;;;;;;;2.27;1.80;;;;;;;;;;5068215;28;20232;-75
2022/08/01 04:22:03;;;;;;;2.53;1.70;;;;;;;;;;5069590;28;20184;-75
2022/08/01 04:24:30;;;;;;;4.87;2.10;;;;;;;;;;5078256;28;20272;-76
2022/08/01 04:26:57;;;;;;;3.23;1.90;;;;;;;;;;5079546;28;20203;-75
2022/08/01 04:29:24;;;;;;;2.30;1.90;;;;;;;;;;5078859;28;20712;-75
2022/08/01 04:31:52;;;;;;;1.97;1.73;;;;;;;;;;5062944;28;20189;-75
2022/08/01 04:34:21;;;;;;;2.67;1.90;;;;;;;;;;5063726;28;20773;-75
2022/08/01 04:36:48;;;;;;;2.80;1.60;;;;;;;;;;5068336;28;20594;-76
2022/08/01 04:39:15;;;;;;;3.47;2.10;;;;;;;;;;5059531;28;20238;-75
2022/08/01 04:41:41;;;;;;;1.93;1.73;;;;;;;;;;5067809;28;20733;-77
2022/08/01 04:44:08;;;;;;;2.73;1.73;;;;;;;;;;5068473;28;20685;-75
2022/08/01 04:46:34;;;;;;;1.80;1.67;;;;;;;;;;5065500;28;20318;-75
2022/08/01 04:49:01;;;;;;;3.07;1.60;;;;;;;;;;5061925;28;20917;-75
2022/08/01 04:51:27;;;;;;;2.87;2.00;;;;;;;;;;5066689;28;20200;-75
2022/08/01 04:53:53;;;;;;;2.07;1.87;;;;;;;;;;5069592;28;20210;-74
2022/08/01 04:56:20;;;;;;;1.60;1.50;;;;;;;;;;5076447;28;20185;-76
2022/08/01 04:58:46;;;;;;;3.03;1.97;;;;;;;;;;5090910;28;20637;-75
2022/08/01 05:01:13;;;;;;;2.07;1.70;;;;;;;;;;5076037;28;20182;-75
2022/08/01 05:03:40;;;;;;;1.77;1.53;;;;;;;;;;5073750;28;20201;-75
2022/08/01 05:06:06;;;;;;;1.70;1.60;;;;;;;;;;5068172;28;20185;-75
2022/08/01 05:08:32;;;;;;;2.93;1.67;;;;;;;;;;5074550;28;20242;-75
2022/08/01 05:10:58;;;;;;;1.60;1.50;;;;;;;;;;5080962;28;20215;-75
2022/08/01 05:13:25;;;;;;;3.53;1.60;;;;;;;;;;5087255;28;20252;-76
2022/08/01 05:15:52;;;;;;;2.47;1.43;;;;;;;;;;5080546;28;20186;-75
2022/08/01 05:18:18;;;;;;;1.93;1.47;;;;;;;;;;5082323;28;20184;-75
2022/08/01 05:20:44;;;;;;;2.30;1.50;;;;;;;;;;5075956;28;20188;-75
2022/08/01 05:23:10;;;;;;;3.13;1.60;;;;;;;;;;5080062;28;20169;-75
2022/08/01 05:25:38;;;;;;;2.13;1.60;;;;;;;;;;5085189;28;20237;-76
2022/08/01 05:28:04;;;;;;;2.70;1.60;;;;;;;;;;5094612;28;20181;-75
2022/08/01 05:30:30;;;;;;;3.37;1.50;;;;;;;;;;5072679;28;20206;-76
2022/08/01 05:32:57;;;;;;;2.27;1.50;;;;;;;;;;5069754;28;20177;-76
2022/08/01 05:35:23;;;;;;;1.67;1.40;;;;;;;;;;5077283;28;20212;-75
2022/08/01 05:37:49;;;;;;;1.70;1.57;;;;;;;;;;5078881;28;20185;-76
2022/08/01 05:40:15;;;;;;;1.60;1.50;;;;;;;;;;5082065;28;20670;-75
2022/08/01 05:42:41;;;;;;;2.83;1.70;;;;;;;;;;5079427;28;20216;-76
2022/08/01 05:45:07;;;;;;;1.83;1.43;;;;;;;;;;5089185;28;20755;-76
2022/08/01 05:47:33;;;;;;;2.60;1.60;;;;;;;;;;5071720;28;20209;-76
2022/08/01 05:50:00;;;;;;;2.13;1.60;;;;;;;;;;5070493;28;20201;-76
2022/08/01 05:52:26;;;;;;;4.03;1.50;;;;;;;;;;5071664;28;20624;-75
2022/08/01 05:54:52;;;;;;;3.30;1.60;;;;;;;;;;5062435;28;20217;-76
2022/08/01 05:57:19;;;;;;;2.00;1.60;;;;;;;;;;5057914;28;20213;-75
2022/08/01 05:59:45;;;;;;;1.97;1.60;;;;;;;;;;5068908;28;20184;-75
2022/08/01 06:02:11;;;;;;;2.80;1.50;;;;;;;;;;5066071;28;20559;-75
2022/08/01 06:04:37;;;;;;;2.30;1.60;;;;;;;;;;5065789;28;20209;-75
2022/08/01 06:07:04;;;;;;;2.57;1.60;;;;;;;;;;5081676;28;20230;-75
2022/08/01 06:09:30;;;;;;;3.30;1.63;;;;;;;;;;5084049;28;20186;-75
2022/08/01 06:11:57;;;;;;;3.33;1.70;;;;;;;;;;5074500;28;20276;-76
2022/08/01 06:14:23;;;;;;;3.80;1.50;;;;;;;;;;5067114;28;20734;-75
2022/08/01 06:16:49;;;;;;;3.57;1.70;;;;;;;;;;5070510;28;20265;-76
2022/08/01 06:19:15;;;;;;;2.70;1.40;;;;;;;;;;5091821;28;20200;-75
2022/08/01 06:21:41;;;;;;;2.37;1.70;;;;;;;;;;5078464;28;20189;-75
2022/08/01 06:24:08;;;;;;;4.70;1.63;;;;;;;;;;5072175;28;20240;-75
2022/08/01 06:26:36;;;;;;;2.30;1.60;;;;;;;;;;5084224;28;20595;-76
2022/08/01 06:29:03;;;;;;;2.07;1.50;;;;;;;;;;5069743;28;20269;-75
2022/08/01 06:31:30;;;;;;;1.67;1.37;;;;;;;;;;5071762;28;20204;-76
2022/08/01 06:33:57;;;;;;;3.03;1.50;;;;;;;;;;5078632;28;20201;-75
2022/08/01 06:36:23;;;;;;;2.10;1.30;;;;;;;;;;5090300;28;20211;-75
2022/08/01 06:38:49;;;;;;;2.30;1.40;;;;;;;;;;5076314;28;20168;-76
2022/08/01 06:41:15;;;;;;;3.87;1.67;;;;;;;;;;5079730;28;20213;-75
2022/08/01 06:43:41;;;;;;;1.83;1.60;;;;;;;;;;5062300;28;20209;-76
2022/08/01 06:46:07;;;;;;;1.40;1.30;;;;;;;;;;5079044;28;20189;-76
2022/08/01 06:48:35;;;;;;;2.60;1.50;;;;;;;;;;5079035;28;20190;-76
2022/08/01 06:51:07;;;;;;;1.60;1.50;;;;;;;;;;5084076;28;20212;-75
2022/08/01 06:53:34;;;;;;;2.37;1.63;;;;;;;;;;5066698;28;20280;-75
2022/08/01 06:56:00;;;;;;;3.37;1.70;;;;;;;;;;5084492;28;20670;-75
2022/08/01 06:58:27;;;;;;;1.60;1.37;;;;;;;;;;5067541;28;20188;-75
2022/08/01 07:00:53;;;;;;;3.30;1.60;;;;;;;;;;5049224;28;20184;-75
2022/08/01 07:03:19;;;;;;;2.13;1.37;;;;;;;;;;5066886;28;20184;-75
2022/08/01 07:05:45;;;;;;;1.50;1.40;;;;;;;;;;5065087;28;20184;-75
2022/08/01 07:08:11;;;;;;;1.60;1.37;;;;;;;;;;5080006;28;20177;-75
2022/08/01 07:10:37;;;;;;;4.10;1.40;;;;;;;;;;5021231;28;1067141;-75
2022/08/01 07:13:03;;;;;;;1.80;1.40;;;;;;;;;;5069069;28;20190;-75
2022/08/01 07:15:30;;;;;;;1.60;1.50;;;;;;;;;;5074079;28;20702;-75
2022/08/01 07:17:56;;;;;;;1.30;1.20;;;;;;;;;;5065559;28;20184;-75
2022/08/01 07:20:22;;;;;;;2.57;1.40;;;;;;;;;;5057129;28;20647;-76
2022/08/01 07:22:49;;;;;;;2.60;1.53;;;;;;;;;;5060002;28;20200;-76
2022/08/01 07:25:15;;;;;;;2.30;1.40;;;;;;;;;;5067219;28;20201;-75
2022/08/01 07:27:41;;;;;;;1.50;1.40;;;;;;;;;;5066554;28;20741;-76
2022/08/01 07:30:07;;;;;;;1.83;1.40;;;;;;;;;;5063107;28;20213;-75
2022/08/01 07:32:34;;;;;;;2.80;1.40;;;;;;;;;;5061463;28;20186;-75
2022/08/01 07:35:01;;;;;;;2.13;1.50;;;;;;;;;;5056604;28;20681;-76
2022/08/01 07:37:27;;;;;;;1.60;1.50;;;;;;;;;;5060302;28;20174;-76
2022/08/01 07:39:53;;;;;;;1.40;1.30;;;;;;;;;;5069895;28;20193;-76
2022/08/01 07:42:19;;;;;;;2.40;1.47;;;;;;;;;;5080722;28;20184;-76
2022/08/01 07:44:45;;;;;;;2.13;1.30;;;;;;;;;;5062312;28;20294;-76
2022/08/01 07:47:11;;;;;;;3.30;1.60;;;;;;;;;;5071576;28;20215;-76
2022/08/01 07:49:39;;;;;;;3.30;1.40;;;;;;;;;;5063025;28;20531;-76
2022/08/01 07:52:05;;;;;;;2.20;1.63;;;;;;;;;;5064305;28;20265;-76
2022/08/01 07:54:31;;;;;;;1.63;1.40;;;;;;;;;;5068713;28;20293;-75
2022/08/01 07:56:58;;;;;;;3.30;1.80;;;;;;;;;;5068662;28;20193;-76
2022/08/01 07:59:24;;;;;;;1.43;1.33;;;;;;;;;;5071344;28;20298;-76
2022/08/01 08:01:50;;;;;;;2.87;1.50;;;;;;;;;;5056897;28;20655;-76
2022/08/01 08:04:17;;;;;;;3.33;1.67;;;;;;;;;;5071070;28;20196;-75
2022/08/01 08:06:44;;;;;;;1.50;1.40;;;;;;;;;;5085586;28;20217;-75
2022/08/01 08:09:11;;;;;;;2.13;1.67;;;;;;;;;;5064821;28;20955;-76
2022/08/01 08:11:37;;;;;;;1.60;1.50;;;;;;;;;;5045971;28;20306;-75
2022/08/01 08:14:03;;;;;;;3.60;1.80;;;;;;;;;;5068539;28;20755;-74
2022/08/01 08:16:30;;;;;;;1.73;1.63;;;;;;;;;;5069903;28;20224;-74
2022/08/01 08:18:56;;;;;;;2.67;1.80;;;;;;;;;;5077016;28;20220;-74
2022/08/01 08:21:22;;;;;;;1.90;1.60;;;;;;;;;;5070146;28;20896;-74
2022/08/01 08:26:34;;;;;;;1.90;1.67;;;;;;;;;;5067764;28;20185;-74
2022/08/01 08:29:00;;;;;;;3.13;1.67;;;;;;;;;;5060753;28;20195;-75
2022/08/01 08:31:26;;;;;;;1.80;1.70;;;;;;;;;;5065974;28;20204;-75
2022/08/01 08:33:52;;;;;;;1.60;1.50;;;;;;;;;;5078278;28;20243;-75
2022/08/01 08:36:18;;;;;;;1.50;1.40;;;;;;;;;;5069370;28;20169;-75
2022/08/01 08:38:44;;;;;;;1.60;1.50;;;;;;;;;;5058539;28;20267;-75
2022/08/01 08:41:11;;;;;;;2.47;1.70;;;;;;;;;;5069421;28;20252;-75
2022/08/01 08:43:37;;;;;;;1.70;1.60;;;;;;;;;;5089796;28;20287;-75
2022/08/01 08:46:03;;;;;;;2.90;1.63;;;;;;;;;;5052840;28;20191;-75
2022/08/01 08:48:30;;;;;;;1.80;1.50;;;;;;;;;;5065598;28;20658;-74
2022/08/01 08:50:57;;;;;;;1.87;1.60;;;;;;;;;;5060514;28;20245;-75
2022/08/01 08:53:23;;;;;;;3.13;1.60;;;;;;;;;;5077888;28;20185;-75
2022/08/01 08:55:50;;;;;;;1.77;1.63;;;;;;;;;;5060865;28;20178;-74
2022/08/01 08:58:18;;;;;;;3.43;1.60;;;;;;;;;;5071719;28;20183;-75
2022/08/01 09:00:44;;;;;;;3.57;1.80;;;;;;;;;;5059974;28;20203;-78
2022/08/01 09:03:10;;;;;;;1.83;1.70;;;;;;;;;;5067357;28;20189;-78
2022/08/01 09:05:37;;;;;;;2.67;1.73;;;;;;;;;;5080214;28;20201;-78
2022/08/01 09:08:06;;;;;;;3.00;1.70;;;;;;;;;;5075124;28;20183;-78
2022/08/01 09:10:32;;;;;;;1.57;1.47;;;;;;;;;;5069030;28;20207;-78
2022/08/01 09:13:12;;;;;;;2.57;1.53;;;;;;;;;;5086422;28;20181;-78
2022/08/01 09:15:42;;;;;;;1.73;1.60;;;;;;;;;;5078450;28;20200;-78
2022/08/01 09:18:08;;;;;;;2.17;1.60;;;;;;;;;;5062269;28;20185;-78
2022/08/01 09:20:35;;;;;;;1.60;1.50;;;;;;;;;;5067054;28;20716;-78
2022/08/01 09:23:03;;;;;;;2.60;1.60;;;;;;;;;;5082899;28;20185;-78
2022/08/01 09:25:33;;;;;;;2.03;1.80;;;;;;;;;;5079301;28;20203;-78
2022/08/01 09:28:04;;;;;;;1.80;1.70;;;;;;;;;;5081544;28;20223;-78
2022/08/01 09:30:36;;;;;;;1.70;1.60;;;;;;;;;;5064441;28;20209;-78
2022/08/01 09:33:03;;;;;;;1.57;1.47;;;;;;;;;;5075632;28;20593;-78
2022/08/01 09:35:34;;;;;;;2.77;1.80;;;;;;;;;;5080413;28;20585;-78
2022/08/01 09:38:14;;;;;;;2.30;1.87;;;;;;;;;;5082678;28;20223;-77
2022/08/01 09:40:46;;;;;;;1.77;1.67;;;;;;;;;;5068888;28;20189;-79
2022/08/01 09:43:12;;;;;;;5.53;1.80;;;;;;;;;;5088139;28;20246;-78
2022/08/01 09:45:39;;;;;;;3.10;1.60;;;;;;;;;;5084635;28;20219;-78
2022/08/01 09:48:08;;;;;;;4.20;1.63;;;;;;;;;;5068932;28;20756;-78
2022/08/01 09:50:49;;;;;;;1.57;1.47;;;;;;;;;;5074417;28;20666;-78
2022/08/01 09:53:15;;;;;;;2.23;1.50;;;;;;;;;;5085449;28;20175;-78
2022/08/01 09:55:42;;;;;;;1.87;1.67;;;;;;;;;;5069964;28;20254;-77
2022/08/01 09:58:10;;;;;;;2.30;1.50;;;;;;;;;;5085663;28;20326;-78
2022/08/01 10:00:36;;;;;;;1.47;1.37;;;;;;;;;;5076861;28;20235;-78
2022/08/01 10:03:22;;;;;;;1.80;1.40;;;;;;;;;;5080595;28;20675;-78
2022/08/01 10:05:48;;;;;;;1.40;1.30;;;;;;;;;;5086703;28;20616;-78
2022/08/01 10:08:15;;;;;;;2.27;1.43;;;;;;;;;;5073170;28;20189;-78
2022/08/01 10:10:41;;;;;;;2.40;1.60;;;;;;;;;;5084531;28;20313;-79
2022/08/01 10:13:08;;;;;;;2.10;1.80;;;;;;;;;;5076538;28;20216;-79
2022/08/01 10:15:34;;;;;;;1.60;1.50;;;;;;;;;;5077107;28;20200;-79
2022/08/01 10:18:01;;;;;;;1.50;1.40;;;;;;;;;;5089802;28;20182;-78
2022/08/01 10:20:28;;;;;;;1.80;1.70;;;;;;;;;;5063393;28;20826;-75
2022/08/01 10:22:55;;;;;;;1.87;1.70;;;;;;;;;;5076618;28;20237;-78
2022/08/01 10:25:22;;;;;;;2.57;1.60;;;;;;;;;;5076996;28;20202;-78
2022/08/01 10:27:49;;;;;;;1.93;1.67;;;;;;;;;;5089994;28;20187;-78
2022/08/01 10:30:16;;;;;;;1.93;1.73;;;;;;;;;;5089982;28;20273;-78
2022/08/01 10:32:43;;;;;;;2.17;1.63;;;;;;;;;;5097563;28;20544;-79
2022/08/01 10:35:15;;;;;;;2.10;1.47;;;;;;;;;;5079495;28;20300;-77
2022/08/01 10:37:42;;;;;;;1.83;1.50;;;;;;;;;;5089277;28;20183;-79
2022/08/01 10:40:09;;;;;;;1.57;1.47;;;;;;;;;;5088706;28;20188;-78
2022/08/01 10:42:35;;;;;;;1.53;1.43;;;;;;;;;;5095651;28;20658;-77
2022/08/01 10:45:02;;;;;;;2.20;1.40;;;;;;;;;;5089808;28;20197;-78
2022/08/01 10:47:38;;;;;;;1.50;1.40;;;;;;;;;;5077264;28;20658;-79
2022/08/01 10:50:23;;;;;;;1.40;1.30;;;;;;;;;;5073336;28;20714;-79
2022/08/01 10:53:12;;;;;;;2.07;1.50;;;;;;;;;;5070117;28;20172;-79
2022/08/01 10:55:46;;;;;;;1.50;1.40;;;;;;;;;;5085870;28;20217;-79
2022/08/01 10:58:12;;;;;;;2.10;1.63;;;;;;;;;;5090660;28;20173;-78
2022/08/01 11:00:38;;;;;;;1.53;1.43;;;;;;;;;;5062689;28;20193;-77
2022/08/01 11:03:04;;;;;;;1.60;1.50;;;;;;;;;;5069354;28;20188;-76
2022/08/01 11:05:34;;;;;;;1.80;1.70;;;;;;;;;;5075994;28;20204;-78
2022/08/01 11:08:09;;;;;;;2.30;1.30;;;;;;;;;;5093491;28;20672;-77
2022/08/01 11:10:39;;;;;;;2.03;1.40;;;;;;;;;;5077477;28;20208;-78
2022/08/01 11:13:10;;;;;;;1.50;1.40;;;;;;;;;;5064564;28;20273;-78
2022/08/01 11:15:38;;;;;;;1.40;1.30;;;;;;;;;;5066673;28;20234;-78
2022/08/01 11:18:23;;;;;;;2.57;1.50;;;;;;;;;;5074787;28;20183;-78
2022/08/01 11:21:07;;;;;;;1.40;1.30;;;;;;;;;;5067253;28;20203;-80
2022/08/01 11:23:47;;;;;;;1.40;1.30;;;;;;;;;;5072331;28;20183;-80
2022/08/01 11:26:14;;;;;;;1.30;1.20;;;;;;;;;;5078234;28;20180;-79
2022/08/01 11:28:41;;;;;;;1.57;1.40;;;;;;;;;;5074693;28;20192;-79
2022/08/01 11:31:14;;;;;;;1.50;1.40;;;;;;;;;;5066551;28;20205;-76
2022/08/01 11:33:44;;;;;;;2.77;1.53;;;;;;;;;;5069230;28;20206;-79
2022/08/01 11:36:10;;;;;;;1.20;1.20;;;;;;;;;;5067994;28;20239;-78
2022/08/01 11:38:38;;;;;;;1.60;1.50;;;;;;;;;;5065302;28;21212;-81
2022/08/01 11:41:17;;;;;;;2.23;1.50;;;;;;;;;;5065371;28;20266;-81
2022/08/01 11:43:55;;;;;;;1.60;1.50;;;;;;;;;;5091888;28;20204;-85
2022/08/01 11:46:40;;;;;;;1.40;1.30;;;;;;;;;;5064330;28;20181;-85
2022/08/01 11:49:25;;;;;;;1.40;1.30;;;;;;;;;;5068204;28;20188;-84
2022/08/01 11:52:02;;;;;;;1.87;1.43;;;;;;;;;;5072092;28;20271;-79
2022/08/01 11:54:29;;;;;;;1.37;1.27;;;;;;;;;;5082755;28;20574;-78
2022/08/01 11:56:59;;;;;;;2.40;1.20;;;;;;;;;;5079775;28;20249;-81
2022/08/01 11:59:26;;;;;;;1.30;1.20;;;;;;;;;;5081444;28;20184;-85
2022/08/01 12:01:52;;;;;;;1.30;1.20;;;;;;;;;;5066430;28;20197;-82
2022/08/01 12:04:19;;;;;;;1.50;1.40;;;;;;;;;;5072744;28;20200;-85
2022/08/01 12:06:45;;;;;;;2.17;1.30;;;;;;;;;;5050146;28;20705;-81
2022/08/01 12:09:19;;;;;;;2.43;1.40;;;;;;;;;;5071252;28;20702;-79
2022/08/01 12:11:45;;;;;;;1.40;1.30;;;;;;;;;;5068735;28;20225;-77
2022/08/01 12:14:16;;;;;;;1.30;1.20;;;;;;;;;;5070245;28;20195;-78
2022/08/01 12:16:48;;;;;;;1.80;1.30;;;;;;;;;;5070313;28;20324;-76
2022/08/01 12:19:19;;;;;;;2.13;1.40;;;;;;;;;;5068134;28;20636;-77
2022/08/01 12:21:45;;;;;;;2.97;1.40;;;;;;;;;;5063896;28;20204;-78
2022/08/01 12:24:12;;;;;;;1.20;1.10;;;;;;;;;;5064086;28;20727;-77
2022/08/01 12:26:44;;;;;;;1.30;1.20;;;;;;;;;;5077401;28;20198;-77
2022/08/01 12:29:10;;;;;;;2.17;1.30;;;;;;;;;;5063747;28;20237;-78
2022/08/01 12:31:36;;;;;;;1.30;1.20;;;;;;;;;;5069073;28;20243;-78
2022/08/01 12:34:21;;;;;;;1.30;1.20;;;;;;;;;;5055915;28;20209;-78
2022/08/01 12:36:47;;;;;;;1.00;1.00;;;;;;;;;;5065462;28;20245;-78
2022/08/01 12:39:14;;;;;;;1.40;1.20;;;;;;;;;;5084742;28;20180;-78
2022/08/01 12:41:43;;;;;;;2.73;1.20;;;;;;;;;;5073240;28;20206;-78
2022/08/01 12:44:14;;;;;;;1.30;1.20;;;;;;;;;;5068032;28;20992;-78
2022/08/01 12:46:41;;;;;;;1.10;1.10;;;;;;;;;;5072858;28;20220;-78
2022/08/01 12:49:08;;;;;;;1.20;1.10;;;;;;;;;;5072402;28;20531;-77
2022/08/01 12:51:34;;;;;;;2.83;1.30;;;;;;;;;;5077369;28;20659;-78
2022/08/01 12:54:00;;;;;;;1.73;1.23;;;;;;;;;;5074060;28;20213;-78
2022/08/01 12:56:33;;;;;;;2.07;1.17;;;;;;;;;;5071543;28;20265;-78
2022/08/01 12:59:00;;;;;;;1.10;1.03;;;;;;;;;;5075339;28;20173;-78
2022/08/01 13:01:27;;;;;;;1.30;1.20;;;;;;;;;;5057401;28;20785;-77
2022/08/01 13:04:06;;;;;;;1.37;1.27;;;;;;;;;;5063224;28;20208;-78
2022/08/01 13:06:35;;;;;;;2.37;1.30;;;;;;;;;;5069375;28;20218;-83
2022/08/01 13:09:05;;;;;;;1.30;1.20;;;;;;;;;;5067161;28;20207;-78
2022/08/01 13:11:31;;;;;;;1.43;1.30;;;;;;;;;;5060227;28;20217;-78
2022/08/01 13:13:57;;;;;;;1.30;1.20;;;;;;;;;;5062686;28;20209;-78
2022/08/01 13:16:27;;;;;;;2.30;1.20;;;;;;;;;;5068557;28;20184;-78
2022/08/01 13:18:54;;;;;;;1.30;1.20;;;;;;;;;;5066210;28;20189;-79
2022/08/01 13:21:22;;;;;;;1.43;1.00;;;;;;;;;;5065077;28;20537;-79
2022/08/01 13:24:07;;;;;;;1.17;1.07;;;;;;;;;;5069022;28;20579;-79
2022/08/01 13:26:48;;;;;;;1.20;1.10;;;;;;;;;;5073043;28;20284;-79
2022/08/01 13:29:16;;;;;;;2.33;1.07;;;;;;;;;;5053475;28;20207;-78
2022/08/01 13:31:43;;;;;;;1.57;1.20;;;;;;;;;;5074596;28;20752;-79
2022/08/01 13:34:09;;;;;;;2.87;1.13;;;;;;;;;;5073426;28;20203;-79
2022/08/01 13:36:36;;;;;;;2.23;1.20;;;;;;;;;;5078391;28;20558;-79
2022/08/01 13:41:48;;;;;;;1.20;1.10;;;;;;;;;;5072692;28;20213;-79
2022/08/01 13:44:15;;;;;;;1.57;1.17;;;;;;;;;;5074240;28;20233;-79
2022/08/01 13:46:42;;;;;;;2.50;1.17;;;;;;;;;;5065444;28;20298;-79
2022/08/01 13:49:09;;;;;;;1.30;1.20;;;;;;;;;;5065011;28;20176;-79
2022/08/01 13:51:35;;;;;;;1.17;1.10;;;;;;;;;;5070117;28;20210;-79
2022/08/01 13:54:02;;;;;;;2.37;1.00;;;;;;;;;;5069778;28;20267;-79
2022/08/01 13:56:28;;;;;;;1.23;1.00;;;;;;;;;;5085157;28;20174;-79
2022/08/01 13:58:55;;;;;;;1.00;1.00;;;;;;;;;;5086280;28;20173;-79
2022/08/01 14:01:21;;;;;;;1.03;0.90;;;;;;;;;;5075714;28;20236;-79
2022/08/01 14:03:48;;;;;;;0.90;0.90;;;;;;;;;;5069705;28;20194;-80
2022/08/01 14:06:15;;;;;;;1.00;0.90;;;;;;;;;;5070003;28;20313;-78
2022/08/01 14:08:42;;;;;;;1.23;0.83;;;;;;;;;;5061908;28;20189;-79
2022/08/01 14:11:08;;;;;;;1.77;0.90;;;;;;;;;;5066213;28;20224;-78
2022/08/01 14:13:37;;;;;;;1.20;1.10;;;;;;;;;;5069765;28;20180;-76
2022/08/01 14:16:03;;;;;;;1.30;1.20;;;;;;;;;;5067351;28;20180;-76
2022/08/01 14:18:29;;;;;;;1.70;1.00;;;;;;;;;;5064396;28;20325;-75
2022/08/01 14:20:55;;;;;;;1.27;1.10;;;;;;;;;;5077620;28;20209;-76
2022/08/01 14:23:21;;;;;;;1.73;1.23;;;;;;;;;;5067517;28;20218;-77
2022/08/01 14:25:48;;;;;;;1.20;1.10;;;;;;;;;;5061192;28;20191;-77
2022/08/01 14:28:14;;;;;;;1.83;1.00;;;;;;;;;;5058708;28;20539;-76
2022/08/01 14:30:43;;;;;;;1.23;1.00;;;;;;;;;;5072501;28;20334;-79
2022/08/01 14:33:10;;;;;;;1.00;1.00;;;;;;;;;;5071405;28;20185;-78
2022/08/01 14:35:36;;;;;;;1.30;1.00;;;;;;;;;;5077192;28;20192;-79
2022/08/01 14:38:03;;;;;;;1.77;0.90;;;;;;;;;;5070593;28;20186;-76
2022/08/01 14:40:30;;;;;;;1.33;0.97;;;;;;;;;;5061046;28;20179;-76
2022/08/01 14:42:56;;;;;;;1.40;1.10;;;;;;;;;;5066463;28;20556;-76
2022/08/01 14:45:22;;;;;;;2.40;0.90;;;;;;;;;;5076909;28;20221;-76
2022/08/01 14:47:48;;;;;;;3.70;1.00;;;;;;;;;;5072417;28;20218;-76
2022/08/01 14:50:15;;;;;;;0.97;0.90;;;;;;;;;;5066788;28;20583;-76
2022/08/01 14:52:42;;;;;;;1.80;0.93;;;;;;;;;;5064775;28;20182;-76
2022/08/01 14:55:10;;;;;;;1.57;1.20;;;;;;;;;;5059833;28;20256;-76